Time;durP1;ratioP1;P1;durP2;ratioP2;P2;SDS_P1;SDS_P2;PMS_P1;PMS_P2;Temp;Humidity;BMP_temperature;BMP_pressure;BME280_temperature;BME280_humidity;BME280_pressure;Samples;Min_cycle;Max_cycle;Signal;HPM_P1;HPM_P2
2023/07/15 00:00:21;;;;;;;;;;;;;;;;;;4861002;29;1203;-90
2023/07/15 00:02:49;;;;;;;;;;;;;;;;;;4861264;29;1363;-90
2023/07/15 00:05:16;;;;;;;;;;;;;;;;;;4861086;29;1332;-91
2023/07/15 00:07:43;;;;;;;;;;;;;;;;;;4860356;29;1227;-91
2023/07/15 00:10:10;;;;;;;;;;;;;;;;;;4864453;29;1199;-90
2023/07/15 00:12:37;;;;;;;;;;;;;;;;;;4860968;29;1140;-91
2023/07/15 00:15:05;;;;;;;;;;;;;;;;;;4860993;29;1984;-91
2023/07/15 00:17:32;;;;;;;;;;;;;;;;;;4861365;29;1267;-91
2023/07/15 00:19:59;;;;;;;;;;;;;;;;;;4861354;29;1235;-91
2023/07/15 00:22:26;;;;;;;;;;;;;;;;;;4860941;29;1296;-90
2023/07/15 00:24:54;;;;;;;;;;;;;;;;;;4860945;29;1209;-90
2023/07/15 00:27:22;;;;;;;;;;;;;;;;;;4860722;29;1241;-90
2023/07/15 00:29:49;;;;;;;;;;;;;;;;;;4860710;29;1275;-92
2023/07/15 00:32:16;;;;;;;;;;;;;;;;;;4860771;29;917;-90
2023/07/15 00:34:43;;;;;;;;;;;;;;;;;;4860579;29;1905;-89
2023/07/15 00:37:10;;;;;;;;;;;;;;;;;;4860769;29;1519;-90
2023/07/15 00:39:37;;;;;;;;;;;;;;;;;;4860569;29;1335;-93
2023/07/15 00:42:04;;;;;;;;;;;;;;;;;;4860495;29;1204;-90
2023/07/15 00:44:31;;;;;;;;;;;;;;;;;;4860624;29;1244;-91
2023/07/15 00:46:58;;;;;;;;;;;;;;;;;;4860743;29;812;-88
2023/07/15 00:49:26;;;;;;;;;;;;;;;;;;4860715;29;1275;-91
2023/07/15 00:51:53;;;;;;;;;;;;;;;;;;4860037;29;1342;-92
2023/07/15 00:54:21;;;;;;;;;;;;;;;;;;4860341;29;1911;-89
2023/07/15 00:56:49;;;;;;;;;;;;;;;;;;4860180;29;1355;-88
2023/07/15 00:59:16;;;;;;;;;;;;;;;;;;4860195;29;1390;-89
2023/07/15 01:01:44;;;;;;;;;;;;;;;;;;4860574;29;1206;-88
2023/07/15 01:04:11;;;;;;;;;;;;;;;;;;4860235;29;1239;-90
2023/07/15 01:06:41;;;;;;;;;;;;;;;;;;4860020;29;1327;-90
2023/07/15 01:09:09;;;;;;;;;;;;;;;;;;4860139;29;1207;-91
2023/07/15 01:11:36;;;;;;;;;;;;;;;;;;4860024;29;1342;-88
2023/07/15 01:14:05;;;;;;;;;;;;;;;;;;4860279;29;1200;-91
2023/07/15 01:16:32;;;;;;;;;;;;;;;;;;4860443;29;1907;-89
2023/07/15 01:19:00;;;;;;;;;;;;;;;;;;4859761;29;1273;-91
2023/07/15 01:21:27;;;;;;;;;;;;;;;;;;4859970;29;1235;-90
2023/07/15 01:23:55;;;;;;;;;;;;;;;;;;4860228;29;1265;-89
2023/07/15 01:26:22;;;;;;;;;;;;;;;;;;4859889;29;1234;-89
2023/07/15 01:28:49;;;;;;;;;;;;;;;;;;4859964;29;1215;-89
2023/07/15 01:31:16;;;;;;;;;;;;;;;;;;4859804;29;1451;-90
2023/07/15 01:33:44;;;;;;;;;;;;;;;;;;4859762;29;1224;-90
2023/07/15 01:36:11;;;;;;;;;;;;;;;;;;4859786;29;1911;-88
2023/07/15 01:38:40;;;;;;;;;;;;;;;;;;4859906;29;1219;-90
2023/07/15 01:41:07;;;;;;;;;;;;;;;;;;4859732;29;1428;-89
2023/07/15 01:43:34;;;;;;;;;;;;;;;;;;4860102;29;1398;-89
2023/07/15 01:46:01;;;;;;;;;;;;;;;;;;4859969;29;1231;-90
2023/07/15 01:48:28;;;;;;;;;;;;;;;;;;4859771;29;1190;-89
2023/07/15 01:50:56;;;;;;;;;;;;;;;;;;4859642;29;1235;-89
2023/07/15 01:53:23;;;;;;;;;;;;;;;;;;4859281;29;1198;-89
2023/07/15 01:55:50;;;;;;;;;;;;;;;;;;4859442;29;1907;-89
2023/07/15 01:58:18;;;;;;;;;;;;;;;;;;4859546;29;1494;-90
2023/07/15 02:13:12;;;;;;;;;;;;;;;;;;6259478;22;1304;-90
2023/07/15 02:15:41;;;;;;;;;;;;;;;;;;6198173;23;1268;-89
2023/07/15 02:18:09;;;;;;;;;;;;;;;;;;6197277;22;1449;-90
2023/07/15 02:20:38;;;;;;;;;;;;;;;;;;6197334;23;1946;-90
2023/07/15 02:23:05;;;;;;;;;;;;;;;;;;6197543;23;1278;-90
2023/07/15 02:25:32;;;;;;;;;;;;;;;;;;6197413;23;1301;-90
2023/07/15 02:27:59;;;;;;;;;;;;;;;;;;6197372;22;1292;-87
2023/07/15 02:30:26;;;;;;;;;;;;;;;;;;6197637;22;845;-90
2023/07/15 02:32:54;;;;;;;;;;;;;;;;;;6222099;22;1204;-89
2023/07/15 02:35:22;;;;;;;;;;;;;;;;;;6197729;22;1354;-89
2023/07/15 02:37:49;;;;;;;;;;;;;;;;;;6197426;22;1284;-91
2023/07/15 02:40:17;;;;;;;;;;;;;;;;;;6221826;23;1285;-92
2023/07/15 02:42:44;;;;;;;;;;;;;;;;;;6197559;23;1878;-91
2023/07/15 02:45:11;;;;;;;;;;;;;;;;;;6198471;23;1171;-89
2023/07/15 02:47:41;;;;;;;;;;;;;;;;;;6223289;23;1214;-91
2023/07/15 02:50:08;;;;;;;;;;;;;;;;;;6223027;23;893;-89
2023/07/15 02:52:35;;;;;;;;;;;;;;;;;;6197869;22;1288;-90
2023/07/15 02:55:03;;;;;;;;;;;;;;;;;;6198035;23;1144;-89
2023/07/15 02:57:30;;;;;;;;;;;;;;;;;;6198769;22;1237;-91
2023/07/15 02:59:57;;;;;;;;;;;;;;;;;;6198390;22;1321;-90
2023/07/15 03:02:24;;;;;;;;;;;;;;;;;;6198713;22;1914;-89
2023/07/15 03:04:51;;;;;;;;;;;;;;;;;;6198434;23;1148;-90
2023/07/15 03:07:18;;;;;;;;;;;;;;;;;;6198007;22;1341;-90
2023/07/15 03:09:45;;;;;;;;;;;;;;;;;;6205175;23;1208;-90
2023/07/15 03:12:12;;;;;;;;;;;;;;;;;;6209411;22;1290;-90
2023/07/15 03:14:42;;;;;;;;;;;;;;;;;;6200873;22;1208;-91
2023/07/15 03:17:12;;;;;;;;;;;;;;;;;;6200826;22;1285;-91
2023/07/15 03:19:39;;;;;;;;;;;;;;;;;;6221388;23;1249;-90
2023/07/15 03:22:06;;;;;;;;;;;;;;;;;;6190843;22;1893;-90
2023/07/15 03:24:33;;;;;;;;;;;;;;;;;;6191146;23;1327;-89
2023/07/15 03:27:00;;;;;;;;;;;;;;;;;;6191340;23;1210;-89
2023/07/15 03:29:27;;;;;;;;;;;;;;;;;;6215946;23;1261;-91
2023/07/15 03:31:54;;;;;;;;;;;;;;;;;;6216618;23;1223;-91
2023/07/15 03:34:23;;;;;;;;;;;;;;;;;;6192169;22;1207;-93
2023/07/15 03:36:52;;;;;;;;;;;;;;;;;;6191307;22;1252;-91
2023/07/15 03:39:21;;;;;;;;;;;;;;;;;;6190850;23;1304;-91
2023/07/15 03:41:48;;;;;;;;;;;;;;;;;;6216324;23;1952;-88
2023/07/15 03:44:16;;;;;;;;;;;;;;;;;;6191969;23;1321;-91
2023/07/15 03:46:43;;;;;;;;;;;;;;;;;;6192563;22;1174;-92
2023/07/15 03:49:10;;;;;;;;;;;;;;;;;;6192016;22;1236;-92
2023/07/15 03:51:37;;;;;;;;;;;;;;;;;;6191888;22;1214;-91
2023/07/15 03:54:05;;;;;;;;;;;;;;;;;;6191957;23;1189;-92
2023/07/15 03:56:33;;;;;;;;;;;;;;;;;;6192242;22;1328;-92
2023/07/15 03:59:00;;;;;;;;;;;;;;;;;;6191970;23;1300;-91
2023/07/15 04:01:27;;;;;;;;;;;;;;;;;;6192163;23;1914;-91
2023/07/15 04:03:54;;;;;;;;;;;;;;;;;;6216222;23;811;-91
2023/07/15 04:06:21;;;;;;;;;;;;;;;;;;6190269;23;1197;-91
2023/07/15 04:08:49;;;;;;;;;;;;;;;;;;6190169;22;1260;-90
2023/07/15 04:11:17;;;;;;;;;;;;;;;;;;6189959;22;1279;-91
2023/07/15 04:13:44;;;;;;;;;;;;;;;;;;6190055;22;1188;-92
2023/07/15 04:16:11;;;;;;;;;;;;;;;;;;6190077;23;1348;-90
2023/07/15 04:18:38;;;;;;;;;;;;;;;;;;6214679;23;1193;-91
2023/07/15 04:21:06;;;;;;;;;;;;;;;;;;6190086;23;1904;-90
2023/07/15 04:23:33;;;;;;;;;;;;;;;;;;6190595;22;1375;-90
2023/07/15 04:26:00;;;;;;;;;;;;;;;;;;6189391;23;1300;-89
2023/07/15 04:28:27;;;;;;;;;;;;;;;;;;6189787;23;1203;-90
2023/07/15 04:30:55;;;;;;;;;;;;;;;;;;6214897;23;1265;-92
2023/07/15 04:33:23;;;;;;;;;;;;;;;;;;6216067;23;1204;-92
2023/07/15 04:35:50;;;;;;;;;;;;;;;;;;6192861;23;1211;-90
2023/07/15 04:38:17;;;;;;;;;;;;;;;;;;6195328;22;1325;-92
2023/07/15 04:40:44;;;;;;;;;;;;;;;;;;6217463;23;821;-92
2023/07/15 04:43:11;;;;;;;;;;;;;;;;;;6195055;22;1905;-90
2023/07/15 04:45:38;;;;;;;;;;;;;;;;;;6191343;22;1279;-91
2023/07/15 04:48:05;;;;;;;;;;;;;;;;;;6190382;22;1250;-92
2023/07/15 04:50:32;;;;;;;;;;;;;;;;;;6192105;23;1296;-91
2023/07/15 04:52:59;;;;;;;;;;;;;;;;;;6192227;22;1317;-90
2023/07/15 04:55:27;;;;;;;;;;;;;;;;;;6191938;23;1179;-91
2023/07/15 04:57:54;;;;;;;;;;;;;;;;;;6222595;23;1281;-91
2023/07/15 05:00:21;;;;;;;;;;;;;;;;;;6221797;23;1305;-90
2023/07/15 05:02:49;;;;;;;;;;;;;;;;;;6222343;23;1955;-92
2023/07/15 05:05:16;;;;;;;;;;;;;;;;;;6222098;23;1283;-92
2023/07/15 05:07:44;;;;;;;;;;;;;;;;;;6215134;23;1289;-90
2023/07/15 05:10:24;;;;;;;;;;;;;;;;;;6192838;22;1324;-90
2023/07/15 05:12:51;;;;;;;;;;;;;;;;;;6194654;23;1224;-90
2023/07/15 05:15:28;;;;;;;;;;;;;;;;;;6227307;23;1344;-91
2023/07/15 05:17:55;;;;;;;;;;;;;;;;;;6193930;23;1481;-92
2023/07/15 05:20:22;;;;;;;;;;;;;;;;;;6190371;23;1287;-91
2023/07/15 05:22:50;;;;;;;;;;;;;;;;;;6199056;22;1925;-91
2023/07/15 05:25:17;;;;;;;;;;;;;;;;;;6189677;23;1210;-89
2023/07/15 05:27:44;;;;;;;;;;;;;;;;;;6223802;23;1210;-89
2023/07/15 05:33:01;;;;;;;;;;;;;;;;;;6377937;22;1215;-91
2023/07/15 05:35:28;;;;;;;;;;;;;;;;;;6327036;22;1358;-90
2023/07/15 05:38:01;;;;;;;;;;;;;;;;;;6356165;22;1411;-92
2023/07/15 05:40:29;;;;;;;;;;;;;;;;;;6342379;22;1397;-91
2023/07/15 05:42:57;;;;;;;;;;;;;;;;;;6341611;22;1943;-89
2023/07/15 05:45:25;;;;;;;;;;;;;;;;;;6369517;22;815;-90
2023/07/15 05:47:52;;;;;;;;;;;;;;;;;;6315636;22;1269;-90
2023/07/15 05:50:19;;;;;;;;;;;;;;;;;;6315934;22;1186;-91
2023/07/15 05:52:46;;;;;;;;;;;;;;;;;;6342140;22;872;-91
2023/07/15 05:55:13;;;;;;;;;;;;;;;;;;6316186;22;1182;-88
2023/07/15 05:57:43;;;;;;;;;;;;;;;;;;6342148;22;1404;-87
2023/07/15 06:00:10;;;;;;;;;;;;;;;;;;6315735;22;1294;-89
2023/07/15 06:02:38;;;;;;;;;;;;;;;;;;6315915;22;1944;-90
2023/07/15 06:05:07;;;;;;;;;;;;;;;;;;6317381;22;1370;-89
2023/07/15 06:07:34;;;;;;;;;;;;;;;;;;6317566;22;1460;-90
2023/07/15 06:10:01;;;;;;;;;;;;;;;;;;6341548;22;1329;-91
2023/07/15 06:12:29;;;;;;;;;;;;;;;;;;6315817;22;1201;-87
2023/07/15 06:14:56;;;;;;;;;;;;;;;;;;6332676;22;897;-90
2023/07/15 06:17:23;;;;;;;;;;;;;;;;;;6315142;22;1268;-92
2023/07/15 06:19:50;;;;;;;;;;;;;;;;;;6315329;22;1312;-90
2023/07/15 06:22:17;;;;;;;;;;;;;;;;;;6341200;22;1934;-88
2023/07/15 06:24:45;;;;;;;;;;;;;;;;;;6314735;22;1347;-88
2023/07/15 06:27:12;;;;;;;;;;;;;;;;;;6315568;22;1269;-90
2023/07/15 06:29:39;;;;;;;;;;;;;;;;;;6341219;22;1400;-88
2023/07/15 06:32:06;;;;;;;;;;;;;;;;;;6314791;22;1349;-90
2023/07/15 06:34:33;;;;;;;;;;;;;;;;;;6315872;22;1202;-90
2023/07/15 06:37:00;;;;;;;;;;;;;;;;;;6315226;22;1199;-90
2023/07/15 06:39:27;;;;;;;;;;;;;;;;;;6314371;22;1186;-88
2023/07/15 06:41:54;;;;;;;;;;;;;;;;;;6340845;22;1904;-89
2023/07/15 06:44:21;;;;;;;;;;;;;;;;;;6341514;22;1221;-91
2023/07/15 06:46:49;;;;;;;;;;;;;;;;;;6315427;22;1178;-89
2023/07/15 06:49:16;;;;;;;;;;;;;;;;;;6318391;22;1186;-92
2023/07/15 06:51:43;;;;;;;;;;;;;;;;;;6320509;22;1236;-92
2023/07/15 06:54:10;;;;;;;;;;;;;;;;;;6318678;22;1302;-91
2023/07/15 06:56:38;;;;;;;;;;;;;;;;;;6343350;22;1224;-91
2023/07/15 06:59:06;;;;;;;;;;;;;;;;;;6317074;22;1193;-90
2023/07/15 07:01:33;;;;;;;;;;;;;;;;;;6315598;22;1939;-88
2023/07/15 07:04:01;;;;;;;;;;;;;;;;;;6317019;22;1226;-94
2023/07/15 07:06:29;;;;;;;;;;;;;;;;;;6317402;22;1278;-88
2023/07/15 07:08:56;;;;;;;;;;;;;;;;;;6315895;22;1411;-89
2023/07/15 07:11:23;;;;;;;;;;;;;;;;;;6370088;22;886;-88
2023/07/15 07:13:51;;;;;;;;;;;;;;;;;;6343492;22;949;-88
2023/07/15 07:16:19;;;;;;;;;;;;;;;;;;6370505;22;811;-88
2023/07/15 07:18:46;;;;;;;;;;;;;;;;;;6318269;22;1337;-94
2023/07/15 07:21:14;;;;;;;;;;;;;;;;;;6344075;22;1305;-92
2023/07/15 07:23:42;;;;;;;;;;;;;;;;;;6343370;22;1908;-90
2023/07/15 07:26:09;;;;;;;;;;;;;;;;;;6343916;22;875;-87
2023/07/15 07:28:39;;;;;;;;;;;;;;;;;;6319136;22;1244;-94
2023/07/15 07:31:07;;;;;;;;;;;;;;;;;;6318608;22;1274;-92
2023/07/15 07:33:34;;;;;;;;;;;;;;;;;;6316365;22;1306;-86
2023/07/15 07:36:03;;;;;;;;;;;;;;;;;;6317643;22;1185;-92
2023/07/15 07:38:31;;;;;;;;;;;;;;;;;;6343270;22;854;-91
2023/07/15 07:41:06;;;;;;;;;;;;;;;;;;6319688;22;1364;-89
2023/07/15 07:43:33;;;;;;;;;;;;;;;;;;6316972;22;1935;-92
2023/07/15 07:46:01;;;;;;;;;;;;;;;;;;6317723;22;1205;-92
2023/07/15 07:48:29;;;;;;;;;;;;;;;;;;6346199;22;878;-93
2023/07/15 07:50:57;;;;;;;;;;;;;;;;;;6319589;22;1199;-86
2023/07/15 07:53:25;;;;;;;;;;;;;;;;;;6342997;22;1270;-87
2023/07/15 07:55:53;;;;;;;;;;;;;;;;;;6346564;22;807;-91
2023/07/15 07:58:21;;;;;;;;;;;;;;;;;;6320564;22;1301;-93
2023/07/15 08:00:48;;;;;;;;;;;;;;;;;;6318830;22;1471;-91
2023/07/15 08:03:16;;;;;;;;;;;;;;;;;;6348566;22;1939;-92
2023/07/15 08:05:44;;;;;;;;;;;;;;;;;;6332386;22;1217;-93
2023/07/15 08:08:13;;;;;;;;;;;;;;;;;;6323454;22;1285;-88
2023/07/15 08:10:41;;;;;;;;;;;;;;;;;;6345889;22;874;-91
2023/07/15 08:13:08;;;;;;;;;;;;;;;;;;6346765;22;1214;-92
2023/07/15 08:15:36;;;;;;;;;;;;;;;;;;6345000;22;1328;-89
2023/07/15 08:18:04;;;;;;;;;;;;;;;;;;6318729;22;1274;-90
2023/07/15 08:20:33;;;;;;;;;;;;;;;;;;6318918;22;1259;-87
2023/07/15 08:23:00;;;;;;;;;;;;;;;;;;6343289;22;1890;-89
2023/07/15 08:25:29;;;;;;;;;;;;;;;;;;6318551;22;1202;-86
2023/07/15 08:27:57;;;;;;;;;;;;;;;;;;6318301;22;1246;-87
2023/07/15 08:30:24;;;;;;;;;;;;;;;;;;6344196;22;1385;-91
2023/07/15 08:32:52;;;;;;;;;;;;;;;;;;6319519;22;1170;-89
2023/07/15 08:35:20;;;;;;;;;;;;;;;;;;6318622;22;1162;-86
2023/07/15 08:37:48;;;;;;;;;;;;;;;;;;6344635;22;855;-93
2023/07/15 08:40:18;;;;;;;;;;;;;;;;;;6345482;22;1251;-89
2023/07/15 08:42:46;;;;;;;;;;;;;;;;;;6318156;22;1905;-91
2023/07/15 08:45:13;;;;;;;;;;;;;;;;;;6318129;22;1354;-91
2023/07/15 08:47:44;;;;;;;;;;;;;;;;;;6343581;22;1303;-87
2023/07/15 08:50:15;;;;;;;;;;;;;;;;;;6318460;22;1193;-88
2023/07/15 08:52:43;;;;;;;;;;;;;;;;;;6316369;22;1250;-91
2023/07/15 08:55:12;;;;;;;;;;;;;;;;;;6342562;22;1288;-92
2023/07/15 08:57:40;;;;;;;;;;;;;;;;;;6317472;22;1389;-87
2023/07/15 09:00:09;;;;;;;;;;;;;;;;;;6342985;22;830;-89
2023/07/15 09:02:43;;;;;;;;;;;;;;;;;;6319343;22;1944;-87
2023/07/15 09:05:10;;;;;;;;;;;;;;;;;;6343397;22;863;-88
2023/07/15 09:07:45;;;;;;;;;;;;;;;;;;6316051;22;1222;-89
2023/07/15 09:10:14;;;;;;;;;;;;;;;;;;6340399;22;1294;-88
2023/07/15 09:12:52;;;;;;;;;;;;;;;;;;6342925;22;819;-90
2023/07/15 09:15:19;;;;;;;;;;;;;;;;;;6316745;22;1398;-90
2023/07/15 09:17:52;;;;;;;;;;;;;;;;;;6318455;22;1285;-90
2023/07/15 09:20:21;;;;;;;;;;;;;;;;;;6370415;22;905;-90
2023/07/15 09:23:01;;;;;;;;;;;;;;;;;;6317309;22;1908;-87
2023/07/15 09:25:31;;;;;;;;;;;;;;;;;;6344260;22;1241;-89
2023/07/15 09:27:58;;;;;;;;;;;;;;;;;;6317985;22;1307;-91
2023/07/15 09:30:27;;;;;;;;;;;;;;;;;;6345791;22;1272;-91
2023/07/15 09:32:54;;;;;;;;;;;;;;;;;;6342443;22;927;-88
2023/07/15 09:35:22;;;;;;;;;;;;;;;;;;6342784;22;1301;-90
2023/07/15 09:37:51;;;;;;;;;;;;;;;;;;6316254;22;1228;-92
2023/07/15 09:40:19;;;;;;;;;;;;;;;;;;6342669;22;862;-89
2023/07/15 09:42:51;;;;;;;;;;;;;;;;;;6343737;22;1904;-92
2023/07/15 09:45:37;;;;;;;;;;;;;;;;;;6344019;22;925;-91
2023/07/15 09:48:09;;;;;;;;;;;;;;;;;;6317402;22;1342;-88
2023/07/15 09:50:38;;;;;;;;;;;;;;;;;;6317687;22;1316;-91
2023/07/15 09:53:06;;;;;;;;;;;;;;;;;;6316424;22;1265;-86
2023/07/15 09:55:34;;;;;;;;;;;;;;;;;;6315612;22;1221;-84
2023/07/15 09:58:21;;;;;;;;;;;;;;;;;;6370326;22;873;-87
2023/07/15 10:00:53;;;;;;;;;;;;;;;;;;6342582;22;873;-87
2023/07/15 10:03:27;;;;;;;;;;;;;;;;;;6317357;22;1951;-89
2023/07/15 10:05:54;;;;;;;;;;;;;;;;;;6316210;22;1315;-89
2023/07/15 10:08:22;;;;;;;;;;;;;;;;;;6317009;22;1178;-89
2023/07/15 10:10:50;;;;;;;;;;;;;;;;;;6317160;22;1075;-93
2023/07/15 10:13:18;;;;;;;;;;;;;;;;;;6319971;22;1205;-93
2023/07/15 10:15:46;;;;;;;;;;;;;;;;;;6320566;22;1377;-91
2023/07/15 10:18:17;;;;;;;;;;;;;;;;;;6322626;22;1302;-93
2023/07/15 10:21:05;;;;;;;;;;;;;;;;;;6319483;22;1316;-89
2023/07/15 10:23:33;;;;;;;;;;;;;;;;;;6324634;22;1872;-89
2023/07/15 10:26:04;;;;;;;;;;;;;;;;;;6322921;22;1169;-88
2023/07/15 10:28:36;;;;;;;;;;;;;;;;;;6319702;22;1274;-91
2023/07/15 10:31:11;;;;;;;;;;;;;;;;;;6344434;22;1185;-88
2023/07/15 10:33:53;;;;;;;;;;;;;;;;;;6317445;22;1213;-87
2023/07/15 10:36:33;;;;;;;;;;;;;;;;;;6316586;22;1241;-85
2023/07/15 10:39:11;;;;;;;;;;;;;;;;;;6342819;22;1189;-88
2023/07/15 10:41:40;;;;;;;;;;;;;;;;;;6317140;22;1345;-85
2023/07/15 10:44:24;;;;;;;;;;;;;;;;;;6316697;22;1904;-80
2023/07/15 10:46:52;;;;;;;;;;;;;;;;;;6370461;22;858;-85
2023/07/15 10:49:21;;;;;;;;;;;;;;;;;;6317061;22;1250;-88
2023/07/15 10:51:52;;;;;;;;;;;;;;;;;;6342245;22;946;-82
2023/07/15 10:54:26;;;;;;;;;;;;;;;;;;6342331;22;907;-87
2023/07/15 10:56:54;;;;;;;;;;;;;;;;;;6316916;22;1217;-83
2023/07/15 10:59:32;;;;;;;;;;;;;;;;;;6316489;22;1216;-87
2023/07/15 11:02:00;;;;;;;;;;;;;;;;;;6317536;22;1309;-88
2023/07/15 11:04:27;;;;;;;;;;;;;;;;;;6317712;22;1900;-88
2023/07/15 11:07:02;;;;;;;;;;;;;;;;;;6320504;22;1287;-90
2023/07/15 11:09:29;;;;;;;;;;;;;;;;;;6343069;22;1182;-87
2023/07/15 11:11:57;;;;;;;;;;;;;;;;;;6316968;22;1277;-86
2023/07/15 11:14:27;;;;;;;;;;;;;;;;;;6316741;22;1380;-88
2023/07/15 11:16:59;;;;;;;;;;;;;;;;;;6316559;22;1171;-91
2023/07/15 11:19:27;;;;;;;;;;;;;;;;;;6315703;22;1158;-86
2023/07/15 11:21:55;;;;;;;;;;;;;;;;;;6314006;22;1215;-87
2023/07/15 11:24:23;;;;;;;;;;;;;;;;;;6315241;22;1904;-89
2023/07/15 11:26:51;;;;;;;;;;;;;;;;;;6317574;22;1299;-87
2023/07/15 11:29:20;;;;;;;;;;;;;;;;;;6316800;22;1253;-87
2023/07/15 11:31:48;;;;;;;;;;;;;;;;;;6316645;22;1289;-87
2023/07/15 11:34:17;;;;;;;;;;;;;;;;;;6317473;22;1215;-89
2023/07/15 11:36:47;;;;;;;;;;;;;;;;;;6342794;22;1285;-89
2023/07/15 11:39:15;;;;;;;;;;;;;;;;;;6317111;22;1314;-87
2023/07/15 11:41:43;;;;;;;;;;;;;;;;;;6342927;22;1182;-86
2023/07/15 11:44:12;;;;;;;;;;;;;;;;;;6316693;22;1885;-84
2023/07/15 11:46:40;;;;;;;;;;;;;;;;;;6316771;22;1281;-88
2023/07/15 11:49:08;;;;;;;;;;;;;;;;;;6316812;22;1374;-86
2023/07/15 11:51:37;;;;;;;;;;;;;;;;;;6316457;22;1199;-87
2023/07/15 11:54:11;;;;;;;;;;;;;;;;;;6316460;22;1182;-85
2023/07/15 11:56:40;;;;;;;;;;;;;;;;;;6316254;22;1291;-87
2023/07/15 11:59:08;;;;;;;;;;;;;;;;;;6317427;22;1337;-90
2023/07/15 12:01:36;;;;;;;;;;;;;;;;;;6317525;22;1260;-89
2023/07/15 12:04:14;;;;;;;;;;;;;;;;;;6317553;22;1912;-91
2023/07/15 12:06:54;;;;;;;;;;;;;;;;;;6317642;22;1242;-92
2023/07/15 12:09:22;;;;;;;;;;;;;;;;;;6316301;22;1321;-90
2023/07/15 12:11:50;;;;;;;;;;;;;;;;;;6316307;22;1300;-91
2023/07/15 12:14:19;;;;;;;;;;;;;;;;;;6319338;22;1194;-89
2023/07/15 12:16:51;;;;;;;;;;;;;;;;;;6322275;22;1421;-88
2023/07/15 12:19:19;;;;;;;;;;;;;;;;;;6317897;22;1428;-88
2023/07/15 12:21:47;;;;;;;;;;;;;;;;;;6316452;22;1222;-92
2023/07/15 12:24:20;;;;;;;;;;;;;;;;;;6317035;22;1941;-90
2023/07/15 12:26:48;;;;;;;;;;;;;;;;;;6315573;22;1358;-89
2023/07/15 12:29:15;;;;;;;;;;;;;;;;;;6315861;22;1324;-89
2023/07/15 12:31:42;;;;;;;;;;;;;;;;;;6315456;22;1252;-90
2023/07/15 12:34:10;;;;;;;;;;;;;;;;;;6314938;22;1311;-90
2023/07/15 12:36:37;;;;;;;;;;;;;;;;;;6315471;22;1103;-88
2023/07/15 12:39:04;;;;;;;;;;;;;;;;;;6315401;22;1126;-86
2023/07/15 12:41:32;;;;;;;;;;;;;;;;;;6314392;22;1232;-87
2023/07/15 12:43:59;;;;;;;;;;;;;;;;;;6314177;22;1917;-86
2023/07/15 12:46:26;;;;;;;;;;;;;;;;;;6314038;22;1216;-85
2023/07/15 12:48:54;;;;;;;;;;;;;;;;;;6367309;22;861;-85
2023/07/15 12:51:21;;;;;;;;;;;;;;;;;;6313903;22;1346;-83
2023/07/15 12:53:49;;;;;;;;;;;;;;;;;;6339811;22;1384;-85
2023/07/15 12:56:16;;;;;;;;;;;;;;;;;;6340696;22;1326;-84
2023/07/15 12:58:44;;;;;;;;;;;;;;;;;;6340686;22;787;-85
2023/07/15 13:01:12;;;;;;;;;;;;;;;;;;6339594;22;803;-83
2023/07/15 13:03:39;;;;;;;;;;;;;;;;;;6366998;22;1908;-83
2023/07/15 13:06:07;;;;;;;;;;;;;;;;;;6313472;22;1469;-82
2023/07/15 13:08:36;;;;;;;;;;;;;;;;;;6313067;22;1376;-83
2023/07/15 13:11:04;;;;;;;;;;;;;;;;;;6338850;22;1200;-82
2023/07/15 13:13:32;;;;;;;;;;;;;;;;;;6339279;22;891;-82
2023/07/15 13:15:59;;;;;;;;;;;;;;;;;;6339795;22;814;-85
2023/07/15 13:18:27;;;;;;;;;;;;;;;;;;6313945;22;1082;-86
2023/07/15 13:20:54;;;;;;;;;;;;;;;;;;6314459;22;1189;-85
2023/07/15 13:23:22;;;;;;;;;;;;;;;;;;6313610;22;1908;-84
2023/07/15 13:25:50;;;;;;;;;;;;;;;;;;6340152;22;853;-83
2023/07/15 13:28:17;;;;;;;;;;;;;;;;;;6340111;22;1410;-83
2023/07/15 13:30:45;;;;;;;;;;;;;;;;;;6314175;22;1146;-84
2023/07/15 13:33:13;;;;;;;;;;;;;;;;;;6339243;22;908;-84
2023/07/15 13:35:41;;;;;;;;;;;;;;;;;;6367856;22;818;-85
2023/07/15 13:38:08;;;;;;;;;;;;;;;;;;6314307;22;1274;-86
2023/07/15 13:40:36;;;;;;;;;;;;;;;;;;6338935;22;1378;-84
2023/07/15 13:43:03;;;;;;;;;;;;;;;;;;6339693;22;1266;-86
2023/07/15 13:45:31;;;;;;;;;;;;;;;;;;6339714;22;1893;-83
2023/07/15 13:47:58;;;;;;;;;;;;;;;;;;6313280;22;879;-86
2023/07/15 13:50:25;;;;;;;;;;;;;;;;;;6314373;22;1355;-87
2023/07/15 13:52:53;;;;;;;;;;;;;;;;;;6314868;22;1447;-87
2023/07/15 13:55:20;;;;;;;;;;;;;;;;;;6314560;22;1285;-86
2023/07/15 13:57:47;;;;;;;;;;;;;;;;;;6314034;22;1323;-86
2023/07/15 14:00:15;;;;;;;;;;;;;;;;;;6317521;22;1312;-88
2023/07/15 14:02:42;;;;;;;;;;;;;;;;;;6344272;22;904;-88
2023/07/15 14:05:10;;;;;;;;;;;;;;;;;;6315150;22;1873;-87
2023/07/15 14:07:37;;;;;;;;;;;;;;;;;;6313302;22;1276;-85
2023/07/15 14:10:05;;;;;;;;;;;;;;;;;;6313268;22;1179;-86
2023/07/15 14:12:33;;;;;;;;;;;;;;;;;;6314057;22;1368;-88
2023/07/15 14:15:01;;;;;;;;;;;;;;;;;;6314941;22;1182;-88
2023/07/15 14:17:28;;;;;;;;;;;;;;;;;;6313223;22;1310;-85
2023/07/15 14:19:56;;;;;;;;;;;;;;;;;;6340269;22;892;-86
2023/07/15 14:22:23;;;;;;;;;;;;;;;;;;6314296;22;1404;-88
2023/07/15 14:25:05;;;;;;;;;;;;;;;;;;6339695;22;1908;-87
2023/07/15 14:27:32;;;;;;;;;;;;;;;;;;6315515;22;1197;-91
2023/07/15 14:29:59;;;;;;;;;;;;;;;;;;6371591;22;882;-89
2023/07/15 14:32:27;;;;;;;;;;;;;;;;;;6342481;22;1200;-89
2023/07/15 14:34:54;;;;;;;;;;;;;;;;;;6340989;22;1463;-91
2023/07/15 14:37:22;;;;;;;;;;;;;;;;;;6315634;22;1251;-90
2023/07/15 14:39:50;;;;;;;;;;;;;;;;;;6341584;22;1412;-89
2023/07/15 14:42:17;;;;;;;;;;;;;;;;;;6368298;22;842;-89
2023/07/15 14:44:45;;;;;;;;;;;;;;;;;;6340782;22;1902;-92
2023/07/15 14:47:12;;;;;;;;;;;;;;;;;;6314575;22;1183;-88
2023/07/15 14:49:41;;;;;;;;;;;;;;;;;;6340979;22;827;-87
2023/07/15 14:52:08;;;;;;;;;;;;;;;;;;6341943;22;1281;-91
2023/07/15 14:54:35;;;;;;;;;;;;;;;;;;6368992;22;854;-90
2023/07/15 14:57:04;;;;;;;;;;;;;;;;;;6340759;22;812;-87
2023/07/15 14:59:32;;;;;;;;;;;;;;;;;;6315327;22;1550;-84
2023/07/15 15:01:59;;;;;;;;;;;;;;;;;;6368198;22;809;-86
2023/07/15 15:04:27;;;;;;;;;;;;;;;;;;6314960;22;1912;-85
2023/07/15 15:06:54;;;;;;;;;;;;;;;;;;6315168;22;1275;-85
2023/07/15 15:09:23;;;;;;;;;;;;;;;;;;6341630;22;755;-84
2023/07/15 15:11:51;;;;;;;;;;;;;;;;;;6341689;22;1100;-85
2023/07/15 15:14:24;;;;;;;;;;;;;;;;;;6315883;22;1091;-85
2023/07/15 15:16:53;;;;;;;;;;;;;;;;;;6315052;22;1294;-85
2023/07/15 15:19:20;;;;;;;;;;;;;;;;;;6342245;22;854;-88
2023/07/15 15:21:48;;;;;;;;;;;;;;;;;;6317413;22;1267;-86
2023/07/15 15:24:16;;;;;;;;;;;;;;;;;;6368719;22;1949;-83
2023/07/15 15:26:43;;;;;;;;;;;;;;;;;;6340633;22;1210;-84
2023/07/15 15:29:11;;;;;;;;;;;;;;;;;;6315102;22;1498;-89
2023/07/15 15:31:38;;;;;;;;;;;;;;;;;;6315139;22;1202;-86
2023/07/15 15:34:06;;;;;;;;;;;;;;;;;;6316034;22;1240;-87
2023/07/15 15:36:34;;;;;;;;;;;;;;;;;;6317126;22;1150;-85
2023/07/15 15:39:01;;;;;;;;;;;;;;;;;;6316314;22;1156;-84
2023/07/15 15:41:29;;;;;;;;;;;;;;;;;;6316027;22;1196;-87
2023/07/15 15:43:56;;;;;;;;;;;;;;;;;;6315393;22;1896;-86
2023/07/15 15:46:24;;;;;;;;;;;;;;;;;;6314202;22;1235;-85
2023/07/15 15:48:52;;;;;;;;;;;;;;;;;;6340649;22;1324;-84
2023/07/15 15:51:20;;;;;;;;;;;;;;;;;;6340545;22;1555;-84
2023/07/15 15:53:56;;;;;;;;;;;;;;;;;;6339927;22;794;-85
2023/07/15 15:56:24;;;;;;;;;;;;;;;;;;6314738;22;1206;-84
2023/07/15 15:58:51;;;;;;;;;;;;;;;;;;6341615;22;835;-84
2023/07/15 16:01:19;;;;;;;;;;;;;;;;;;6341172;22;1334;-84
2023/07/15 16:03:47;;;;;;;;;;;;;;;;;;6342520;22;854;-85
2023/07/15 16:06:14;;;;;;;;;;;;;;;;;;6315972;22;1934;-86
2023/07/15 16:08:42;;;;;;;;;;;;;;;;;;6315296;22;1418;-84
2023/07/15 16:11:10;;;;;;;;;;;;;;;;;;6316182;22;1234;-86
2023/07/15 16:13:38;;;;;;;;;;;;;;;;;;6316421;22;1182;-84
2023/07/15 16:16:05;;;;;;;;;;;;;;;;;;6342111;22;911;-86
2023/07/15 16:18:33;;;;;;;;;;;;;;;;;;6316637;22;1237;-85
2023/07/15 16:21:00;;;;;;;;;;;;;;;;;;6316659;22;1209;-86
2023/07/15 16:23:28;;;;;;;;;;;;;;;;;;6315325;22;1230;-85
2023/07/15 16:26:00;;;;;;;;;;;;;;;;;;6317155;22;1920;-85
2023/07/15 16:28:31;;;;;;;;;;;;;;;;;;6316916;22;1206;-85
2023/07/15 16:30:58;;;;;;;;;;;;;;;;;;6315315;22;1234;-85
2023/07/15 16:33:26;;;;;;;;;;;;;;;;;;6315965;22;1549;-85
2023/07/15 16:35:54;;;;;;;;;;;;;;;;;;6315863;22;1333;-86
2023/07/15 16:38:21;;;;;;;;;;;;;;;;;;6341247;22;779;-85
2023/07/15 16:40:51;;;;;;;;;;;;;;;;;;6314699;22;1284;-86
2023/07/15 16:43:18;;;;;;;;;;;;;;;;;;6315775;22;1173;-85
2023/07/15 16:45:49;;;;;;;;;;;;;;;;;;6342231;22;1900;-86
2023/07/15 16:48:17;;;;;;;;;;;;;;;;;;6316043;22;1220;-85
2023/07/15 16:50:45;;;;;;;;;;;;;;;;;;6315679;22;1257;-86
2023/07/15 16:53:12;;;;;;;;;;;;;;;;;;6315529;22;1333;-85
2023/07/15 16:55:42;;;;;;;;;;;;;;;;;;6316052;22;1268;-87
2023/07/15 16:58:10;;;;;;;;;;;;;;;;;;6318249;22;1217;-85
2023/07/15 17:00:37;;;;;;;;;;;;;;;;;;6322271;22;1261;-85
2023/07/15 17:03:05;;;;;;;;;;;;;;;;;;6317387;22;1176;-86
2023/07/15 17:05:33;;;;;;;;;;;;;;;;;;6316566;22;1935;-88
2023/07/15 17:08:00;;;;;;;;;;;;;;;;;;6341042;22;885;-84
2023/07/15 17:10:28;;;;;;;;;;;;;;;;;;6341554;22;877;-84
2023/07/15 17:12:55;;;;;;;;;;;;;;;;;;6341331;22;1091;-84
2023/07/15 17:15:22;;;;;;;;;;;;;;;;;;6314523;22;1229;-83
2023/07/15 17:17:52;;;;;;;;;;;;;;;;;;6315383;22;1254;-83
2023/07/15 17:20:19;;;;;;;;;;;;;;;;;;6341328;22;838;-83
2023/07/15 17:22:47;;;;;;;;;;;;;;;;;;6314113;22;1228;-83
2023/07/15 17:25:14;;;;;;;;;;;;;;;;;;6314882;22;1900;-84
2023/07/15 17:27:41;;;;;;;;;;;;;;;;;;6340460;22;1285;-83